sensor_id;sensor_type;location;lat;lon;timestamp;pressure;altitude;pressure_sealevel;temperature;humidity
54144;BME280;40050;47.324;18.792;2022-11-20T00:00:30;1000.34;;;4.39;70.83
54144;BME280;40050;47.324;18.792;2022-11-20T00:02:32;1000.23;;;4.36;70.84
54144;BME280;40050;47.324;18.792;2022-11-20T00:04:35;1000.21;;;4.33;70.81
54144;BME280;40050;47.324;18.792;2022-11-20T00:06:37;1000.29;;;4.34;70.80
54144;BME280;40050;47.324;18.792;2022-11-20T00:08:40;1000.38;;;4.37;70.74
54144;BME280;40050;47.324;18.792;2022-11-20T00:10:42;1000.31;;;4.31;70.72
54144;BME280;40050;47.324;18.792;2022-11-20T00:12:45;1000.44;;;4.33;70.83
54144;BME280;40050;47.324;18.792;2022-11-20T00:14:47;1000.47;;;4.34;70.63
54144;BME280;40050;47.324;18.792;2022-11-20T00:16:49;1000.55;;;4.37;70.59
54144;BME280;40050;47.324;18.792;2022-11-20T00:18:52;1000.27;;;4.20;70.64
54144;BME280;40050;47.324;18.792;2022-11-20T00:21:00;1000.47;;;4.36;70.80
54144;BME280;40050;47.324;18.792;2022-11-20T00:23:02;1000.53;;;4.39;70.78
54144;BME280;40050;47.324;18.792;2022-11-20T00:25:05;1000.58;;;4.37;70.74
54144;BME280;40050;47.324;18.792;2022-11-20T00:27:07;1000.66;;;4.34;70.70
54144;BME280;40050;47.324;18.792;2022-11-20T00:29:09;1000.78;;;4.32;70.79
54144;BME280;40050;47.324;18.792;2022-11-20T00:31:13;1000.76;;;4.28;70.70
54144;BME280;40050;47.324;18.792;2022-11-20T00:33:16;1000.71;;;4.35;70.54
54144;BME280;40050;47.324;18.792;2022-11-20T00:35:18;1000.59;;;4.32;70.72
54144;BME280;40050;47.324;18.792;2022-11-20T00:37:21;1000.52;;;4.33;70.69
54144;BME280;40050;47.324;18.792;2022-11-20T00:39:23;1000.51;;;4.31;70.79
54144;BME280;40050;47.324;18.792;2022-11-20T00:41:26;1000.49;;;4.35;70.81
54144;BME280;40050;47.324;18.792;2022-11-20T00:43:28;1000.40;;;4.33;70.82
54144;BME280;40050;47.324;18.792;2022-11-20T00:45:31;1000.39;;;4.35;70.76
54144;BME280;40050;47.324;18.792;2022-11-20T00:47:33;1000.43;;;4.36;70.67
54144;BME280;40050;47.324;18.792;2022-11-20T00:49:36;1000.44;;;4.36;70.60
54144;BME280;40050;47.324;18.792;2022-11-20T00:51:38;1000.44;;;4.36;70.33
54144;BME280;40050;47.324;18.792;2022-11-20T00:53:40;1000.37;;;4.32;70.25
54144;BME280;40050;47.324;18.792;2022-11-20T00:55:43;1000.37;;;4.32;70.41
54144;BME280;40050;47.324;18.792;2022-11-20T00:57:45;1000.33;;;4.33;70.47
54144;BME280;40050;47.324;18.792;2022-11-20T00:59:47;1000.31;;;4.36;70.31
54144;BME280;40050;47.324;18.792;2022-11-20T01:01:50;1000.33;;;4.38;70.08
54144;BME280;40050;47.324;18.792;2022-11-20T01:03:53;1000.39;;;4.37;70.09
54144;BME280;40050;47.324;18.792;2022-11-20T01:05:59;1000.52;;;4.40;70.20
54144;BME280;40050;47.324;18.792;2022-11-20T01:08:01;1000.55;;;4.37;70.25
54144;BME280;40050;47.324;18.792;2022-11-20T01:10:03;1000.53;;;4.32;70.34
54144;BME280;40050;47.324;18.792;2022-11-20T01:12:06;1000.57;;;4.31;70.41
54144;BME280;40050;47.324;18.792;2022-11-20T01:14:15;1000.56;;;4.35;70.45
54144;BME280;40050;47.324;18.792;2022-11-20T01:16:22;1000.61;;;4.35;70.32
54144;BME280;40050;47.324;18.792;2022-11-20T01:18:24;1000.70;;;4.34;70.36
54144;BME280;40050;47.324;18.792;2022-11-20T01:20:27;1000.80;;;4.31;70.48
54144;BME280;40050;47.324;18.792;2022-11-20T01:22:29;1000.76;;;4.32;70.40
54144;BME280;40050;47.324;18.792;2022-11-20T01:24:31;1000.74;;;4.36;70.19
54144;BME280;40050;47.324;18.792;2022-11-20T01:26:37;1000.72;;;4.32;70.24
54144;BME280;40050;47.324;18.792;2022-11-20T01:28:40;1000.75;;;4.32;70.38
54144;BME280;40050;47.324;18.792;2022-11-20T01:30:42;1000.68;;;4.34;70.54
54144;BME280;40050;47.324;18.792;2022-11-20T01:32:44;1000.61;;;4.33;70.62
54144;BME280;40050;47.324;18.792;2022-11-20T01:34:47;1000.68;;;4.41;70.38
54144;BME280;40050;47.324;18.792;2022-11-20T01:36:49;1000.62;;;4.38;70.02
54144;BME280;40050;47.324;18.792;2022-11-20T01:38:52;1000.59;;;4.36;70.06
54144;BME280;40050;47.324;18.792;2022-11-20T01:40:55;1000.53;;;4.31;70.10
54144;BME280;40050;47.324;18.792;2022-11-20T01:43:19;1000.54;;;4.32;70.01
54144;BME280;40050;47.324;18.792;2022-11-20T01:47:49;1000.44;;;4.29;69.73
54144;BME280;40050;47.324;18.792;2022-11-20T01:49:55;1000.50;;;4.34;69.65
54144;BME280;40050;47.324;18.792;2022-11-20T01:51:59;1000.54;;;4.29;69.58
54144;BME280;40050;47.324;18.792;2022-11-20T01:54:04;1000.49;;;4.26;69.71
54144;BME280;40050;47.324;18.792;2022-11-20T01:56:08;1000.56;;;4.22;69.82
54144;BME280;40050;47.324;18.792;2022-11-20T01:58:11;1000.49;;;4.20;69.89
54144;BME280;40050;47.324;18.792;2022-11-20T02:00:15;1000.58;;;4.28;70.17
54144;BME280;40050;47.324;18.792;2022-11-20T02:02:19;1000.65;;;4.28;70.15
54144;BME280;40050;47.324;18.792;2022-11-20T02:04:22;1000.61;;;4.28;70.10
54144;BME280;40050;47.324;18.792;2022-11-20T02:06:29;1000.59;;;4.28;70.13
54144;BME280;40050;47.324;18.792;2022-11-20T02:08:33;1000.55;;;4.29;70.15
54144;BME280;40050;47.324;18.792;2022-11-20T02:10:36;1000.53;;;4.31;70.22
54144;BME280;40050;47.324;18.792;2022-11-20T02:12:38;1000.43;;;4.29;70.04
54144;BME280;40050;47.324;18.792;2022-11-20T02:14:40;1000.52;;;4.34;70.01
54144;BME280;40050;47.324;18.792;2022-11-20T02:16:47;1000.53;;;4.34;69.95
54144;BME280;40050;47.324;18.792;2022-11-20T02:18:49;1000.57;;;4.36;69.99
54144;BME280;40050;47.324;18.792;2022-11-20T02:21:04;1000.46;;;4.36;70.03
54144;BME280;40050;47.324;18.792;2022-11-20T02:23:12;1000.39;;;4.36;70.59
54144;BME280;40050;47.324;18.792;2022-11-20T02:25:19;1000.32;;;4.35;70.89
54144;BME280;40050;47.324;18.792;2022-11-20T02:27:22;1000.35;;;4.38;70.79
54144;BME280;40050;47.324;18.792;2022-11-20T02:29:37;1000.39;;;4.38;70.71
54144;BME280;40050;47.324;18.792;2022-11-20T02:31:41;1000.40;;;4.39;70.48
54144;BME280;40050;47.324;18.792;2022-11-20T02:33:44;1000.44;;;4.40;70.55
54144;BME280;40050;47.324;18.792;2022-11-20T02:35:47;1000.44;;;4.41;70.75
54144;BME280;40050;47.324;18.792;2022-11-20T02:37:50;1000.48;;;4.42;70.81
54144;BME280;40050;47.324;18.792;2022-11-20T02:39:55;1000.38;;;4.40;70.93
54144;BME280;40050;47.324;18.792;2022-11-20T02:41:57;1000.44;;;4.42;70.79
54144;BME280;40050;47.324;18.792;2022-11-20T02:43:59;1000.52;;;4.44;70.90
54144;BME280;40050;47.324;18.792;2022-11-20T02:46:02;1000.49;;;4.45;70.97
54144;BME280;40050;47.324;18.792;2022-11-20T02:48:05;1000.43;;;4.43;71.00
54144;BME280;40050;47.324;18.792;2022-11-20T02:50:08;1000.45;;;4.47;70.91
54144;BME280;40050;47.324;18.792;2022-11-20T02:52:10;1000.51;;;4.49;70.87
54144;BME280;40050;47.324;18.792;2022-11-20T02:54:12;1000.40;;;4.45;70.92
54144;BME280;40050;47.324;18.792;2022-11-20T02:56:15;1000.30;;;4.45;70.84
54144;BME280;40050;47.324;18.792;2022-11-20T02:58:17;1000.17;;;4.48;70.91
54144;BME280;40050;47.324;18.792;2022-11-20T03:00:20;1000.16;;;4.49;70.99
54144;BME280;40050;47.324;18.792;2022-11-20T03:02:22;1000.15;;;4.49;70.93
54144;BME280;40050;47.324;18.792;2022-11-20T03:04:24;1000.13;;;4.44;71.05
54144;BME280;40050;47.324;18.792;2022-11-20T03:06:27;1000.25;;;4.46;71.07
54144;BME280;40050;47.324;18.792;2022-11-20T03:08:29;1000.22;;;4.45;70.95
54144;BME280;40050;47.324;18.792;2022-11-20T03:10:31;1000.23;;;4.45;70.89
54144;BME280;40050;47.324;18.792;2022-11-20T03:12:34;1000.23;;;4.45;71.12
54144;BME280;40050;47.324;18.792;2022-11-20T03:14:36;1000.24;;;4.46;71.22
54144;BME280;40050;47.324;18.792;2022-11-20T03:16:38;1000.28;;;4.43;71.10
54144;BME280;40050;47.324;18.792;2022-11-20T03:18:41;1000.37;;;4.45;70.84
54144;BME280;40050;47.324;18.792;2022-11-20T03:20:43;1000.41;;;4.44;70.65
54144;BME280;40050;47.324;18.792;2022-11-20T03:22:46;1000.44;;;4.41;70.59
54144;BME280;40050;47.324;18.792;2022-11-20T03:24:48;1000.40;;;4.38;70.53
54144;BME280;40050;47.324;18.792;2022-11-20T03:26:50;1000.33;;;4.35;70.63
54144;BME280;40050;47.324;18.792;2022-11-20T03:28:54;1000.41;;;4.43;70.87
54144;BME280;40050;47.324;18.792;2022-11-20T03:30:56;1000.08;;;4.25;70.96
54144;BME280;40050;47.324;18.792;2022-11-20T03:32:59;1000.45;;;4.47;70.93
54144;BME280;40050;47.324;18.792;2022-11-20T03:35:01;1000.41;;;4.45;71.05
54144;BME280;40050;47.324;18.792;2022-11-20T03:37:03;1000.38;;;4.45;71.34
54144;BME280;40050;47.324;18.792;2022-11-20T03:39:06;1000.39;;;4.46;71.55
54144;BME280;40050;47.324;18.792;2022-11-20T03:41:14;1000.37;;;4.47;71.78
54144;BME280;40050;47.324;18.792;2022-11-20T03:43:16;1000.34;;;4.50;71.79
54144;BME280;40050;47.324;18.792;2022-11-20T03:45:19;1000.34;;;4.49;71.41
54144;BME280;40050;47.324;18.792;2022-11-20T03:47:21;1000.29;;;4.47;71.57
54144;BME280;40050;47.324;18.792;2022-11-20T03:49:24;1000.29;;;4.46;71.87
54144;BME280;40050;47.324;18.792;2022-11-20T03:51:35;1000.23;;;4.46;72.11
54144;BME280;40050;47.324;18.792;2022-11-20T03:53:38;1000.27;;;4.50;72.15
54144;BME280;40050;47.324;18.792;2022-11-20T03:55:40;1000.21;;;4.51;72.21
54144;BME280;40050;47.324;18.792;2022-11-20T03:57:43;1000.12;;;4.54;72.16
54144;BME280;40050;47.324;18.792;2022-11-20T03:59:45;1000.10;;;4.58;71.97
54144;BME280;40050;47.324;18.792;2022-11-20T04:01:48;1000.02;;;4.61;71.87
54144;BME280;40050;47.324;18.792;2022-11-20T04:03:51;999.93;;;4.62;71.78
54144;BME280;40050;47.324;18.792;2022-11-20T04:05:54;999.87;;;4.54;71.87
54144;BME280;40050;47.324;18.792;2022-11-20T04:07:56;999.85;;;4.51;71.96
54144;BME280;40050;47.324;18.792;2022-11-20T04:09:59;999.82;;;4.52;72.00
54144;BME280;40050;47.324;18.792;2022-11-20T04:12:01;999.72;;;4.50;71.84
54144;BME280;40050;47.324;18.792;2022-11-20T04:14:04;999.72;;;4.51;71.67
54144;BME280;40050;47.324;18.792;2022-11-20T04:16:07;999.83;;;4.54;71.60
54144;BME280;40050;47.324;18.792;2022-11-20T04:18:10;999.88;;;4.55;71.63
54144;BME280;40050;47.324;18.792;2022-11-20T04:20:12;999.97;;;4.55;71.78
54144;BME280;40050;47.324;18.792;2022-11-20T04:22:15;999.98;;;4.56;71.80
54144;BME280;40050;47.324;18.792;2022-11-20T04:24:17;999.97;;;4.59;71.82
54144;BME280;40050;47.324;18.792;2022-11-20T04:26:20;999.97;;;4.57;71.95
54144;BME280;40050;47.324;18.792;2022-11-20T04:28:22;999.77;;;4.50;72.02
54144;BME280;40050;47.324;18.792;2022-11-20T04:30:25;999.82;;;4.58;71.95
54144;BME280;40050;47.324;18.792;2022-11-20T04:32:27;999.70;;;4.54;72.02
54144;BME280;40050;47.324;18.792;2022-11-20T04:34:29;999.68;;;4.56;72.05
54144;BME280;40050;47.324;18.792;2022-11-20T04:36:32;999.71;;;4.57;72.13
54144;BME280;40050;47.324;18.792;2022-11-20T04:38:34;999.77;;;4.58;72.15
54144;BME280;40050;47.324;18.792;2022-11-20T04:40:37;999.80;;;4.59;72.20
54144;BME280;40050;47.324;18.792;2022-11-20T04:42:39;999.85;;;4.59;72.31
54144;BME280;40050;47.324;18.792;2022-11-20T04:44:41;999.87;;;4.59;72.44
54144;BME280;40050;47.324;18.792;2022-11-20T04:46:44;999.80;;;4.56;72.50
54144;BME280;40050;47.324;18.792;2022-11-20T04:48:47;999.90;;;4.64;72.51
54144;BME280;40050;47.324;18.792;2022-11-20T04:50:50;999.88;;;4.63;72.53
54144;BME280;40050;47.324;18.792;2022-11-20T04:52:52;999.82;;;4.63;72.69
54144;BME280;40050;47.324;18.792;2022-11-20T04:54:55;999.69;;;4.62;72.82
54144;BME280;40050;47.324;18.792;2022-11-20T04:56:57;999.68;;;4.60;72.89
54144;BME280;40050;47.324;18.792;2022-11-20T04:59:00;999.82;;;4.63;72.81
54144;BME280;40050;47.324;18.792;2022-11-20T05:01:06;999.83;;;4.62;72.89
54144;BME280;40050;47.324;18.792;2022-11-20T05:03:09;999.88;;;4.64;72.83
54144;BME280;40050;47.324;18.792;2022-11-20T05:05:12;999.76;;;4.64;72.80
54144;BME280;40050;47.324;18.792;2022-11-20T05:07:14;999.76;;;4.67;73.02
54144;BME280;40050;47.324;18.792;2022-11-20T05:09:16;999.78;;;4.66;73.03
54144;BME280;40050;47.324;18.792;2022-11-20T05:11:20;999.79;;;4.65;72.95
54144;BME280;40050;47.324;18.792;2022-11-20T05:13:23;999.80;;;4.67;72.90
54144;BME280;40050;47.324;18.792;2022-11-20T05:15:25;999.76;;;4.67;72.97
54144;BME280;40050;47.324;18.792;2022-11-20T05:17:27;999.69;;;4.67;73.02
54144;BME280;40050;47.324;18.792;2022-11-20T05:19:30;999.68;;;4.70;72.99
54144;BME280;40050;47.324;18.792;2022-11-20T05:21:32;999.48;;;4.60;72.92
54144;BME280;40050;47.324;18.792;2022-11-20T05:23:35;999.72;;;4.75;72.92
54144;BME280;40050;47.324;18.792;2022-11-20T05:25:37;999.72;;;4.74;73.03
54144;BME280;40050;47.324;18.792;2022-11-20T05:27:40;999.65;;;4.69;73.09
54144;BME280;40050;47.324;18.792;2022-11-20T05:29:42;999.58;;;4.72;73.02
54144;BME280;40050;47.324;18.792;2022-11-20T05:31:44;999.55;;;4.72;72.93
54144;BME280;40050;47.324;18.792;2022-11-20T05:33:47;999.55;;;4.71;72.96
54144;BME280;40050;47.324;18.792;2022-11-20T05:35:49;999.48;;;4.78;72.91
54144;BME280;40050;47.324;18.792;2022-11-20T05:37:51;999.37;;;4.72;73.07
54144;BME280;40050;47.324;18.792;2022-11-20T05:39:54;999.42;;;4.72;73.18
54144;BME280;40050;47.324;18.792;2022-11-20T05:41:56;999.57;;;4.77;73.23
54144;BME280;40050;47.324;18.792;2022-11-20T05:43:58;999.73;;;4.75;73.07
54144;BME280;40050;47.324;18.792;2022-11-20T05:46:01;999.84;;;4.76;73.02
54144;BME280;40050;47.324;18.792;2022-11-20T05:48:04;999.73;;;4.73;73.08
54144;BME280;40050;47.324;18.792;2022-11-20T05:50:06;999.62;;;4.73;73.09
54144;BME280;40050;47.324;18.792;2022-11-20T05:52:09;999.65;;;4.78;72.90
54144;BME280;40050;47.324;18.792;2022-11-20T05:54:11;999.72;;;4.80;72.75
54144;BME280;40050;47.324;18.792;2022-11-20T05:56:15;999.77;;;4.79;72.83
54144;BME280;40050;47.324;18.792;2022-11-20T05:58:18;999.69;;;4.68;73.14
54144;BME280;40050;47.324;18.792;2022-11-20T06:00:20;999.72;;;4.67;73.35
54144;BME280;40050;47.324;18.792;2022-11-20T06:02:22;999.75;;;4.63;73.47
54144;BME280;40050;47.324;18.792;2022-11-20T06:04:25;999.83;;;4.68;73.41
54144;BME280;40050;47.324;18.792;2022-11-20T06:06:27;999.76;;;4.64;73.44
54144;BME280;40050;47.324;18.792;2022-11-20T06:08:29;999.73;;;4.61;73.49
54144;BME280;40050;47.324;18.792;2022-11-20T06:10:32;999.74;;;4.61;73.50
54144;BME280;40050;47.324;18.792;2022-11-20T06:12:34;999.77;;;4.68;73.43
54144;BME280;40050;47.324;18.792;2022-11-20T06:14:37;999.72;;;4.71;73.33
54144;BME280;40050;47.324;18.792;2022-11-20T06:16:39;999.73;;;4.70;73.39
54144;BME280;40050;47.324;18.792;2022-11-20T06:18:41;999.76;;;4.74;73.35
54144;BME280;40050;47.324;18.792;2022-11-20T06:20:44;999.79;;;4.76;73.14
54144;BME280;40050;47.324;18.792;2022-11-20T06:22:46;999.88;;;4.74;73.15
54144;BME280;40050;47.324;18.792;2022-11-20T06:24:49;999.96;;;4.71;73.21
54144;BME280;40050;47.324;18.792;2022-11-20T06:26:51;1000.03;;;4.70;73.28
54144;BME280;40050;47.324;18.792;2022-11-20T06:28:54;1000.10;;;4.69;73.47
54144;BME280;40050;47.324;18.792;2022-11-20T06:30:56;1000.02;;;4.64;73.77
54144;BME280;40050;47.324;18.792;2022-11-20T06:32:59;1000.10;;;4.64;74.00
54144;BME280;40050;47.324;18.792;2022-11-20T06:35:01;1000.23;;;4.66;74.11
54144;BME280;40050;47.324;18.792;2022-11-20T06:37:04;999.92;;;4.50;74.11
54144;BME280;40050;47.324;18.792;2022-11-20T06:39:08;1000.15;;;4.69;74.12
54144;BME280;40050;47.324;18.792;2022-11-20T06:41:11;1000.13;;;4.72;74.05
54144;BME280;40050;47.324;18.792;2022-11-20T06:43:14;1000.10;;;4.71;74.08
54144;BME280;40050;47.324;18.792;2022-11-20T06:45:17;1000.20;;;4.80;73.99
54144;BME280;40050;47.324;18.792;2022-11-20T06:47:19;1000.11;;;4.78;73.87
54144;BME280;40050;47.324;18.792;2022-11-20T06:49:21;1000.03;;;4.78;73.96
54144;BME280;40050;47.324;18.792;2022-11-20T06:51:24;1000.06;;;4.82;74.14
54144;BME280;40050;47.324;18.792;2022-11-20T06:53:26;1000.02;;;4.83;74.29
54144;BME280;40050;47.324;18.792;2022-11-20T06:55:29;999.98;;;4.83;74.24
54144;BME280;40050;47.324;18.792;2022-11-20T06:57:31;1000.07;;;4.90;74.06
54144;BME280;40050;47.324;18.792;2022-11-20T06:59:33;1000.16;;;4.94;73.94
54144;BME280;40050;47.324;18.792;2022-11-20T07:01:36;999.92;;;4.78;73.78
54144;BME280;40050;47.324;18.792;2022-11-20T07:03:38;1000.20;;;4.97;73.63
54144;BME280;40050;47.324;18.792;2022-11-20T07:05:41;1000.23;;;4.96;73.62
54144;BME280;40050;47.324;18.792;2022-11-20T07:07:43;1000.19;;;4.97;73.62
54144;BME280;40050;47.324;18.792;2022-11-20T07:09:46;1000.18;;;4.96;73.60
54144;BME280;40050;47.324;18.792;2022-11-20T07:11:48;1000.20;;;4.96;73.68
54144;BME280;40050;47.324;18.792;2022-11-20T07:13:50;1000.22;;;4.99;73.82
54144;BME280;40050;47.324;18.792;2022-11-20T07:15:53;1000.20;;;5.04;73.74
54144;BME280;40050;47.324;18.792;2022-11-20T07:17:55;1000.22;;;5.05;73.54
54144;BME280;40050;47.324;18.792;2022-11-20T07:20:00;1000.16;;;4.95;73.59
54144;BME280;40050;47.324;18.792;2022-11-20T07:22:02;1000.15;;;4.94;73.73
54144;BME280;40050;47.324;18.792;2022-11-20T07:24:04;1000.20;;;4.96;73.83
54144;BME280;40050;47.324;18.792;2022-11-20T07:26:08;1000.05;;;4.88;74.05
54144;BME280;40050;47.324;18.792;2022-11-20T07:28:11;1000.21;;;4.99;74.13
54144;BME280;40050;47.324;18.792;2022-11-20T07:30:13;1000.25;;;5.00;74.30
54144;BME280;40050;47.324;18.792;2022-11-20T07:32:16;1000.21;;;5.03;74.36
54144;BME280;40050;47.324;18.792;2022-11-20T07:34:18;1000.20;;;5.06;74.44
54144;BME280;40050;47.324;18.792;2022-11-20T07:36:20;1000.20;;;5.11;74.43
54144;BME280;40050;47.324;18.792;2022-11-20T07:38:23;1000.22;;;5.10;74.65
54144;BME280;40050;47.324;18.792;2022-11-20T07:40:25;1000.28;;;5.15;74.51
54144;BME280;40050;47.324;18.792;2022-11-20T07:42:27;1000.29;;;5.12;74.63
54144;BME280;40050;47.324;18.792;2022-11-20T07:44:30;1000.35;;;5.09;74.76
54144;BME280;40050;47.324;18.792;2022-11-20T07:46:32;1000.22;;;4.99;75.04
54144;BME280;40050;47.324;18.792;2022-11-20T07:48:34;1000.22;;;5.03;75.22
54144;BME280;40050;47.324;18.792;2022-11-20T07:50:37;1000.17;;;5.02;75.46
54144;BME280;40050;47.324;18.792;2022-11-20T07:52:39;1000.17;;;5.03;75.61
54144;BME280;40050;47.324;18.792;2022-11-20T07:54:41;1000.18;;;5.06;75.71
54144;BME280;40050;47.324;18.792;2022-11-20T07:56:44;1000.05;;;5.05;75.82
54144;BME280;40050;47.324;18.792;2022-11-20T07:58:46;1000.19;;;5.14;75.87
54144;BME280;40050;47.324;18.792;2022-11-20T08:00:48;1000.09;;;5.20;75.89
54144;BME280;40050;47.324;18.792;2022-11-20T08:02:50;999.91;;;5.16;75.80
54144;BME280;40050;47.324;18.792;2022-11-20T08:04:53;1000.02;;;5.28;75.74
54144;BME280;40050;47.324;18.792;2022-11-20T08:06:55;999.94;;;5.28;75.69
54144;BME280;40050;47.324;18.792;2022-11-20T08:08:57;999.98;;;5.34;75.68
54144;BME280;40050;47.324;18.792;2022-11-20T08:11:00;999.98;;;5.38;75.74
54144;BME280;40050;47.324;18.792;2022-11-20T08:13:02;1000.03;;;5.43;75.72
54144;BME280;40050;47.324;18.792;2022-11-20T08:15:05;999.96;;;5.44;75.80
54144;BME280;40050;47.324;18.792;2022-11-20T08:17:07;999.90;;;5.47;75.67
54144;BME280;40050;47.324;18.792;2022-11-20T08:19:10;999.91;;;5.50;75.50
54144;BME280;40050;47.324;18.792;2022-11-20T08:21:12;999.99;;;5.56;75.63
54144;BME280;40050;47.324;18.792;2022-11-20T08:23:14;1000.13;;;5.70;75.62
54144;BME280;40050;47.324;18.792;2022-11-20T08:25:17;1000.16;;;5.68;75.76
54144;BME280;40050;47.324;18.792;2022-11-20T08:27:19;1000.19;;;5.73;75.67
54144;BME280;40050;47.324;18.792;2022-11-20T08:29:22;1000.19;;;5.74;75.51
54144;BME280;40050;47.324;18.792;2022-11-20T08:31:24;1000.21;;;5.80;75.57
54144;BME280;40050;47.324;18.792;2022-11-20T08:33:27;1000.25;;;5.95;75.43
54144;BME280;40050;47.324;18.792;2022-11-20T08:35:33;1000.25;;;5.95;75.36
54144;BME280;40050;47.324;18.792;2022-11-20T08:37:35;1000.31;;;5.99;75.33
54144;BME280;40050;47.324;18.792;2022-11-20T08:39:38;1000.33;;;6.01;75.35
54144;BME280;40050;47.324;18.792;2022-11-20T08:41:40;1000.47;;;6.12;75.17
54144;BME280;40050;47.324;18.792;2022-11-20T08:43:42;1000.50;;;6.12;74.91
54144;BME280;40050;47.324;18.792;2022-11-20T08:45:45;1000.53;;;6.10;74.91
54144;BME280;40050;47.324;18.792;2022-11-20T08:47:47;1000.50;;;6.05;74.93
54144;BME280;40050;47.324;18.792;2022-11-20T08:49:50;1000.62;;;6.15;74.83
54144;BME280;40050;47.324;18.792;2022-11-20T08:51:52;1000.52;;;6.13;74.62
54144;BME280;40050;47.324;18.792;2022-11-20T08:53:54;1000.45;;;6.08;74.72
54144;BME280;40050;47.324;18.792;2022-11-20T08:55:57;1000.55;;;6.09;74.81
54144;BME280;40050;47.324;18.792;2022-11-20T08:58:03;1000.57;;;6.11;75.11
54144;BME280;40050;47.324;18.792;2022-11-20T09:00:05;1000.54;;;6.17;75.10
54144;BME280;40050;47.324;18.792;2022-11-20T09:02:08;1000.56;;;6.19;74.93
54144;BME280;40050;47.324;18.792;2022-11-20T09:04:11;1000.64;;;6.26;74.89
54144;BME280;40050;47.324;18.792;2022-11-20T09:06:13;1000.60;;;6.30;74.68
54144;BME280;40050;47.324;18.792;2022-11-20T09:08:16;1000.61;;;6.33;74.62
54144;BME280;40050;47.324;18.792;2022-11-20T09:10:18;1000.49;;;6.35;74.47
54144;BME280;40050;47.324;18.792;2022-11-20T09:12:20;1000.52;;;6.33;74.50
54144;BME280;40050;47.324;18.792;2022-11-20T09:14:23;1000.47;;;6.37;74.35
54144;BME280;40050;47.324;18.792;2022-11-20T09:16:25;1000.54;;;6.48;74.20
54144;BME280;40050;47.324;18.792;2022-11-20T09:18:28;1000.49;;;6.43;74.37
54144;BME280;40050;47.324;18.792;2022-11-20T09:20:30;1000.52;;;6.46;74.35
54144;BME280;40050;47.324;18.792;2022-11-20T09:22:33;1000.55;;;6.46;74.29
54144;BME280;40050;47.324;18.792;2022-11-20T09:24:35;1000.50;;;6.50;74.17
54144;BME280;40050;47.324;18.792;2022-11-20T09:26:38;1000.57;;;6.53;74.16
54144;BME280;40050;47.324;18.792;2022-11-20T09:28:40;1000.54;;;6.49;74.14
54144;BME280;40050;47.324;18.792;2022-11-20T09:30:42;1000.54;;;6.50;73.95
54144;BME280;40050;47.324;18.792;2022-11-20T09:32:45;1000.55;;;6.47;73.98
54144;BME280;40050;47.324;18.792;2022-11-20T09:34:47;1000.49;;;6.39;74.18
54144;BME280;40050;47.324;18.792;2022-11-20T09:36:49;1000.48;;;6.41;74.40
54144;BME280;40050;47.324;18.792;2022-11-20T09:38:52;1000.42;;;6.45;74.44
54144;BME280;40050;47.324;18.792;2022-11-20T09:40:56;1000.47;;;6.51;74.58
54144;BME280;40050;47.324;18.792;2022-11-20T09:43:03;1000.49;;;6.48;74.68
54144;BME280;40050;47.324;18.792;2022-11-20T09:45:23;1000.52;;;6.50;74.81
54144;BME280;40050;47.324;18.792;2022-11-20T09:47:33;1000.26;;;6.32;75.07
54144;BME280;40050;47.324;18.792;2022-11-20T09:54:22;1000.50;;;6.69;74.14
54144;BME280;40050;47.324;18.792;2022-11-20T09:56:28;1000.45;;;6.63;73.82
54144;BME280;40050;47.324;18.792;2022-11-20T09:58:32;1000.44;;;6.68;73.74
54144;BME280;40050;47.324;18.792;2022-11-20T10:00:36;1000.42;;;6.68;73.61
54144;BME280;40050;47.324;18.792;2022-11-20T10:02:47;1000.31;;;6.64;73.76
54144;BME280;40050;47.324;18.792;2022-11-20T10:07:21;1000.22;;;6.70;74.04
54144;BME280;40050;47.324;18.792;2022-11-20T10:09:28;1000.13;;;6.69;74.42
54144;BME280;40050;47.324;18.792;2022-11-20T10:16:13;1000.01;;;6.81;73.74
54144;BME280;40050;47.324;18.792;2022-11-20T10:18:30;1000.05;;;6.81;73.93
54144;BME280;40050;47.324;18.792;2022-11-20T10:20:56;1000.04;;;6.82;73.97
54144;BME280;40050;47.324;18.792;2022-11-20T10:23:13;1000.05;;;6.85;74.27
54144;BME280;40050;47.324;18.792;2022-11-20T10:25:34;1000.04;;;6.90;73.99
54144;BME280;40050;47.324;18.792;2022-11-20T10:30:06;1000.00;;;6.86;74.37
54144;BME280;40050;47.324;18.792;2022-11-20T10:32:16;999.90;;;6.90;74.57
54144;BME280;40050;47.324;18.792;2022-11-20T10:36:54;999.84;;;6.99;74.60
54144;BME280;40050;47.324;18.792;2022-11-20T10:38:59;999.85;;;7.05;74.71
54144;BME280;40050;47.324;18.792;2022-11-20T10:41:06;999.81;;;7.20;74.57
54144;BME280;40050;47.324;18.792;2022-11-20T10:43:16;999.78;;;7.25;74.61
54144;BME280;40050;47.324;18.792;2022-11-20T10:45:21;999.79;;;7.35;74.65
54144;BME280;40050;47.324;18.792;2022-11-20T10:47:50;999.85;;;7.39;74.96
54144;BME280;40050;47.324;18.792;2022-11-20T10:50:12;999.91;;;7.49;74.88
54144;BME280;40050;47.324;18.792;2022-11-20T10:56:53;1000.07;;;7.58;74.29
54144;BME280;40050;47.324;18.792;2022-11-20T11:01:20;1000.21;;;7.71;73.96
54144;BME280;40050;47.324;18.792;2022-11-20T11:03:27;1000.19;;;7.68;74.20
54144;BME280;40050;47.324;18.792;2022-11-20T11:10:26;1000.22;;;7.82;73.63
54144;BME280;40050;47.324;18.792;2022-11-20T11:12:29;1000.22;;;7.88;73.56
54144;BME280;40050;47.324;18.792;2022-11-20T11:14:31;1000.24;;;7.95;73.36
54144;BME280;40050;47.324;18.792;2022-11-20T11:16:50;1000.21;;;7.94;73.14
54144;BME280;40050;47.324;18.792;2022-11-20T11:19:07;1000.23;;;7.95;73.18
54144;BME280;40050;47.324;18.792;2022-11-20T11:21:13;1000.17;;;7.95;73.33
54144;BME280;40050;47.324;18.792;2022-11-20T11:23:40;1000.17;;;7.97;73.43
54144;BME280;40050;47.324;18.792;2022-11-20T11:25:55;1000.21;;;8.09;73.10
54144;BME280;40050;47.324;18.792;2022-11-20T11:28:01;1000.12;;;8.04;72.60
54144;BME280;40050;47.324;18.792;2022-11-20T11:32:06;1000.10;;;8.05;72.99
54144;BME280;40050;47.324;18.792;2022-11-20T11:34:16;1000.06;;;8.12;72.77
54144;BME280;40050;47.324;18.792;2022-11-20T11:40:43;999.96;;;8.19;72.45
54144;BME280;40050;47.324;18.792;2022-11-20T11:42:54;999.94;;;8.14;72.42
54144;BME280;40050;47.324;18.792;2022-11-20T11:53:14;999.81;;;8.27;72.52